sensor_id;sensor_type;location;lat;lon;timestamp;P1;durP1;ratioP1;P2;durP2;ratioP2
37845;SDS011;23686;49.828;8.702;2023-02-28T00:00:16;5.60;;;3.25;;
37845;SDS011;23686;49.828;8.702;2023-02-28T00:02:43;3.97;;;2.47;;
37845;SDS011;23686;49.828;8.702;2023-02-28T00:05:10;4.10;;;2.40;;
37845;SDS011;23686;49.828;8.702;2023-02-28T00:07:37;4.82;;;2.60;;
37845;SDS011;23686;49.828;8.702;2023-02-28T00:10:06;3.90;;;2.53;;
37845;SDS011;23686;49.828;8.702;2023-02-28T00:12:34;4.30;;;2.65;;
37845;SDS011;23686;49.828;8.702;2023-02-28T00:15:00;4.22;;;2.45;;
37845;SDS011;23686;49.828;8.702;2023-02-28T00:17:26;3.40;;;2.38;;
37845;SDS011;23686;49.828;8.702;2023-02-28T00:19:52;2.60;;;2.08;;
37845;SDS011;23686;49.828;8.702;2023-02-28T00:22:18;4.88;;;2.53;;
37845;SDS011;23686;49.828;8.702;2023-02-28T00:24:45;3.05;;;2.50;;
37845;SDS011;23686;49.828;8.702;2023-02-28T00:27:11;4.35;;;2.47;;
37845;SDS011;23686;49.828;8.702;2023-02-28T00:29:37;3.38;;;2.33;;
37845;SDS011;23686;49.828;8.702;2023-02-28T00:32:03;3.72;;;2.60;;
37845;SDS011;23686;49.828;8.702;2023-02-28T00:34:29;4.78;;;2.33;;
37845;SDS011;23686;49.828;8.702;2023-02-28T00:36:54;4.70;;;2.67;;
37845;SDS011;23686;49.828;8.702;2023-02-28T00:39:20;2.60;;;2.30;;
37845;SDS011;23686;49.828;8.702;2023-02-28T00:41:46;7.18;;;2.60;;
37845;SDS011;23686;49.828;8.702;2023-02-28T00:44:11;3.45;;;2.20;;
37845;SDS011;23686;49.828;8.702;2023-02-28T00:46:37;3.10;;;2.65;;
37845;SDS011;23686;49.828;8.702;2023-02-28T00:49:02;4.15;;;2.50;;
37845;SDS011;23686;49.828;8.702;2023-02-28T00:51:28;2.80;;;2.47;;
37845;SDS011;23686;49.828;8.702;2023-02-28T00:53:54;3.35;;;2.42;;
37845;SDS011;23686;49.828;8.702;2023-02-28T00:56:19;2.65;;;2.40;;
37845;SDS011;23686;49.828;8.702;2023-02-28T00:58:45;6.10;;;2.30;;
37845;SDS011;23686;49.828;8.702;2023-02-28T01:01:10;3.58;;;2.50;;
37845;SDS011;23686;49.828;8.702;2023-02-28T01:03:36;3.22;;;2.30;;
37845;SDS011;23686;49.828;8.702;2023-02-28T01:06:01;5.78;;;2.20;;
37845;SDS011;23686;49.828;8.702;2023-02-28T01:08:27;3.00;;;2.00;;
37845;SDS011;23686;49.828;8.702;2023-02-28T01:10:53;2.30;;;2.10;;
37845;SDS011;23686;49.828;8.702;2023-02-28T01:13:19;5.07;;;2.70;;
37845;SDS011;23686;49.828;8.702;2023-02-28T01:15:46;3.30;;;2.45;;
37845;SDS011;23686;49.828;8.702;2023-02-28T01:18:15;4.28;;;2.60;;
37845;SDS011;23686;49.828;8.702;2023-02-28T01:20:41;4.90;;;2.42;;
37845;SDS011;23686;49.828;8.702;2023-02-28T01:23:07;3.08;;;2.40;;
37845;SDS011;23686;49.828;8.702;2023-02-28T01:25:34;3.22;;;2.20;;
37845;SDS011;23686;49.828;8.702;2023-02-28T01:28:00;4.40;;;2.67;;
37845;SDS011;23686;49.828;8.702;2023-02-28T01:30:26;2.80;;;2.53;;
37845;SDS011;23686;49.828;8.702;2023-02-28T01:32:52;4.22;;;2.85;;
37845;SDS011;23686;49.828;8.702;2023-02-28T01:35:18;2.67;;;2.47;;
37845;SDS011;23686;49.828;8.702;2023-02-28T01:37:44;4.15;;;2.70;;
37845;SDS011;23686;49.828;8.702;2023-02-28T01:40:10;4.57;;;2.97;;
37845;SDS011;23686;49.828;8.702;2023-02-28T01:42:36;4.30;;;2.70;;
37845;SDS011;23686;49.828;8.702;2023-02-28T01:45:17;4.50;;;3.08;;
37845;SDS011;23686;49.828;8.702;2023-02-28T01:47:55;3.67;;;2.53;;
37845;SDS011;23686;49.828;8.702;2023-02-28T01:50:28;2.70;;;2.28;;
37845;SDS011;23686;49.828;8.702;2023-02-28T01:52:56;5.32;;;2.47;;
37845;SDS011;23686;49.828;8.702;2023-02-28T01:55:25;4.53;;;2.60;;
37845;SDS011;23686;49.828;8.702;2023-02-28T01:57:55;5.40;;;2.70;;
37845;SDS011;23686;49.828;8.702;2023-02-28T02:00:22;4.07;;;2.70;;
37845;SDS011;23686;49.828;8.702;2023-02-28T02:02:53;2.70;;;2.50;;
37845;SDS011;23686;49.828;8.702;2023-02-28T02:05:24;3.40;;;2.30;;
37845;SDS011;23686;49.828;8.702;2023-02-28T02:07:52;3.50;;;2.72;;
37845;SDS011;23686;49.828;8.702;2023-02-28T02:10:21;3.90;;;2.75;;
37845;SDS011;23686;49.828;8.702;2023-02-28T02:19:29;2.72;;;2.50;;
37845;SDS011;23686;49.828;8.702;2023-02-28T02:23:02;3.03;;;2.43;;
37845;SDS011;23686;49.828;8.702;2023-02-28T02:25:13;3.63;;;2.65;;
37845;SDS011;23686;49.828;8.702;2023-02-28T02:36:38;4.00;;;3.10;;
37845;SDS011;23686;49.828;8.702;2023-02-28T02:39:16;5.45;;;2.40;;
37845;SDS011;23686;49.828;8.702;2023-02-28T02:41:53;6.25;;;3.00;;
37845;SDS011;23686;49.828;8.702;2023-02-28T02:44:27;5.75;;;2.70;;
37845;SDS011;23686;49.828;8.702;2023-02-28T02:47:03;2.88;;;2.55;;
37845;SDS011;23686;49.828;8.702;2023-02-28T02:49:39;3.60;;;3.00;;
37845;SDS011;23686;49.828;8.702;2023-02-28T02:52:11;4.32;;;3.30;;
37845;SDS011;23686;49.828;8.702;2023-02-28T02:54:43;4.03;;;2.97;;
37845;SDS011;23686;49.828;8.702;2023-02-28T02:57:15;3.65;;;2.97;;
37845;SDS011;23686;49.828;8.702;2023-02-28T02:59:45;4.18;;;3.08;;
37845;SDS011;23686;49.828;8.702;2023-02-28T03:02:12;2.95;;;2.58;;
37845;SDS011;23686;49.828;8.702;2023-02-28T03:04:42;3.75;;;2.72;;
37845;SDS011;23686;49.828;8.702;2023-02-28T03:07:11;3.78;;;2.90;;
37845;SDS011;23686;49.828;8.702;2023-02-28T03:09:36;3.22;;;2.65;;
37845;SDS011;23686;49.828;8.702;2023-02-28T03:12:02;3.50;;;2.80;;
37845;SDS011;23686;49.828;8.702;2023-02-28T03:14:42;3.20;;;2.90;;
37845;SDS011;23686;49.828;8.702;2023-02-28T03:22:57;6.00;;;3.08;;
37845;SDS011;23686;49.828;8.702;2023-02-28T03:28:21;3.50;;;3.08;;
37845;SDS011;23686;49.828;8.702;2023-02-28T03:30:49;3.70;;;3.30;;
37845;SDS011;23686;49.828;8.702;2023-02-28T03:33:20;3.30;;;3.00;;
37845;SDS011;23686;49.828;8.702;2023-02-28T03:36:04;5.70;;;3.13;;
37845;SDS011;23686;49.828;8.702;2023-02-28T03:38:44;4.50;;;2.88;;
37845;SDS011;23686;49.828;8.702;2023-02-28T03:41:22;6.47;;;4.07;;
37845;SDS011;23686;49.828;8.702;2023-02-28T03:43:53;3.63;;;3.15;;
37845;SDS011;23686;49.828;8.702;2023-02-28T03:46:24;4.43;;;3.35;;
37845;SDS011;23686;49.828;8.702;2023-02-28T03:49:01;5.35;;;3.70;;
37845;SDS011;23686;49.828;8.702;2023-02-28T03:51:40;4.60;;;3.20;;
37845;SDS011;23686;49.828;8.702;2023-02-28T03:54:12;4.20;;;3.63;;
37845;SDS011;23686;49.828;8.702;2023-02-28T03:56:43;5.05;;;3.47;;
37845;SDS011;23686;49.828;8.702;2023-02-28T03:59:22;4.65;;;3.65;;
37845;SDS011;23686;49.828;8.702;2023-02-28T04:01:59;3.92;;;2.92;;
37845;SDS011;23686;49.828;8.702;2023-02-28T04:04:25;5.32;;;3.85;;
37845;SDS011;23686;49.828;8.702;2023-02-28T04:06:51;5.20;;;3.58;;
37845;SDS011;23686;49.828;8.702;2023-02-28T04:09:17;5.28;;;3.67;;
37845;SDS011;23686;49.828;8.702;2023-02-28T04:11:44;5.07;;;3.45;;
37845;SDS011;23686;49.828;8.702;2023-02-28T04:14:16;5.78;;;3.63;;
37845;SDS011;23686;49.828;8.702;2023-02-28T04:16:42;6.03;;;3.78;;
37845;SDS011;23686;49.828;8.702;2023-02-28T04:19:09;4.93;;;3.63;;
37845;SDS011;23686;49.828;8.702;2023-02-28T04:21:36;4.50;;;3.78;;
37845;SDS011;23686;49.828;8.702;2023-02-28T04:24:08;3.83;;;3.28;;
37845;SDS011;23686;49.828;8.702;2023-02-28T04:26:39;4.10;;;3.70;;
37845;SDS011;23686;49.828;8.702;2023-02-28T04:29:05;3.72;;;3.33;;
37845;SDS011;23686;49.828;8.702;2023-02-28T04:31:32;6.78;;;3.70;;
37845;SDS011;23686;49.828;8.702;2023-02-28T04:33:58;7.60;;;3.67;;
37845;SDS011;23686;49.828;8.702;2023-02-28T04:36:23;5.22;;;4.07;;
37845;SDS011;23686;49.828;8.702;2023-02-28T04:38:49;4.90;;;3.80;;
37845;SDS011;23686;49.828;8.702;2023-02-28T04:41:15;4.85;;;3.60;;
37845;SDS011;23686;49.828;8.702;2023-02-28T04:43:41;3.60;;;3.20;;
37845;SDS011;23686;49.828;8.702;2023-02-28T04:46:07;6.18;;;3.67;;
37845;SDS011;23686;49.828;8.702;2023-02-28T04:48:34;4.18;;;3.40;;
37845;SDS011;23686;49.828;8.702;2023-02-28T04:51:02;5.00;;;3.80;;
37845;SDS011;23686;49.828;8.702;2023-02-28T04:53:29;5.47;;;4.00;;
37845;SDS011;23686;49.828;8.702;2023-02-28T04:55:55;5.82;;;4.00;;
37845;SDS011;23686;49.828;8.702;2023-02-28T04:58:22;4.47;;;3.63;;
37845;SDS011;23686;49.828;8.702;2023-02-28T05:00:48;4.05;;;3.65;;
37845;SDS011;23686;49.828;8.702;2023-02-28T05:03:14;4.80;;;4.15;;
37845;SDS011;23686;49.828;8.702;2023-02-28T05:05:40;4.40;;;3.80;;
37845;SDS011;23686;49.828;8.702;2023-02-28T05:08:05;4.38;;;3.97;;
37845;SDS011;23686;49.828;8.702;2023-02-28T05:10:31;5.47;;;3.90;;
37845;SDS011;23686;49.828;8.702;2023-02-28T05:12:57;4.25;;;3.50;;
37845;SDS011;23686;49.828;8.702;2023-02-28T05:15:22;6.00;;;4.07;;
37845;SDS011;23686;49.828;8.702;2023-02-28T05:17:48;5.50;;;4.10;;
37845;SDS011;23686;49.828;8.702;2023-02-28T05:20:14;4.47;;;3.30;;
37845;SDS011;23686;49.828;8.702;2023-02-28T05:22:40;4.32;;;3.63;;
37845;SDS011;23686;49.828;8.702;2023-02-28T05:25:06;6.30;;;3.80;;
37845;SDS011;23686;49.828;8.702;2023-02-28T05:27:33;5.20;;;3.83;;
37845;SDS011;23686;49.828;8.702;2023-02-28T05:29:59;5.65;;;3.85;;
37845;SDS011;23686;49.828;8.702;2023-02-28T05:32:24;6.05;;;4.22;;
37845;SDS011;23686;49.828;8.702;2023-02-28T05:34:50;4.97;;;4.28;;
37845;SDS011;23686;49.828;8.702;2023-02-28T05:37:15;5.18;;;3.95;;
37845;SDS011;23686;49.828;8.702;2023-02-28T05:39:41;5.22;;;3.78;;
37845;SDS011;23686;49.828;8.702;2023-02-28T05:42:07;6.18;;;4.20;;
37845;SDS011;23686;49.828;8.702;2023-02-28T05:44:34;4.15;;;3.53;;
37845;SDS011;23686;49.828;8.702;2023-02-28T05:46:59;5.07;;;4.22;;
37845;SDS011;23686;49.828;8.702;2023-02-28T05:49:25;4.47;;;3.88;;
37845;SDS011;23686;49.828;8.702;2023-02-28T05:51:52;8.27;;;4.63;;
37845;SDS011;23686;49.828;8.702;2023-02-28T05:54:17;5.35;;;4.40;;
37845;SDS011;23686;49.828;8.702;2023-02-28T05:56:43;7.68;;;4.30;;
37845;SDS011;23686;49.828;8.702;2023-02-28T05:59:14;6.20;;;3.95;;
37845;SDS011;23686;49.828;8.702;2023-02-28T06:04:07;6.85;;;3.72;;
37845;SDS011;23686;49.828;8.702;2023-02-28T06:06:35;6.95;;;4.28;;
37845;SDS011;23686;49.828;8.702;2023-02-28T06:09:02;4.35;;;3.88;;
37845;SDS011;23686;49.828;8.702;2023-02-28T06:11:29;4.95;;;4.15;;
37845;SDS011;23686;49.828;8.702;2023-02-28T06:13:58;4.55;;;3.67;;
37845;SDS011;23686;49.828;8.702;2023-02-28T06:16:26;5.68;;;4.30;;
37845;SDS011;23686;49.828;8.702;2023-02-28T06:18:52;4.57;;;3.90;;
37845;SDS011;23686;49.828;8.702;2023-02-28T06:21:20;5.45;;;4.07;;
37845;SDS011;23686;49.828;8.702;2023-02-28T06:23:46;6.47;;;4.20;;
37845;SDS011;23686;49.828;8.702;2023-02-28T06:26:12;5.97;;;4.07;;
37845;SDS011;23686;49.828;8.702;2023-02-28T06:28:38;5.43;;;4.45;;
37845;SDS011;23686;49.828;8.702;2023-02-28T06:31:10;5.25;;;4.30;;
37845;SDS011;23686;49.828;8.702;2023-02-28T06:33:37;4.75;;;4.20;;
37845;SDS011;23686;49.828;8.702;2023-02-28T06:36:03;5.47;;;4.40;;
37845;SDS011;23686;49.828;8.702;2023-02-28T06:38:30;4.78;;;3.83;;
37845;SDS011;23686;49.828;8.702;2023-02-28T06:40:56;4.88;;;3.85;;
37845;SDS011;23686;49.828;8.702;2023-02-28T06:43:23;5.25;;;3.80;;
37845;SDS011;23686;49.828;8.702;2023-02-28T06:45:50;4.22;;;3.83;;
37845;SDS011;23686;49.828;8.702;2023-02-28T06:51:04;9.15;;;4.70;;
37845;SDS011;23686;49.828;8.702;2023-02-28T06:53:31;6.57;;;4.32;;
37845;SDS011;23686;49.828;8.702;2023-02-28T06:55:57;7.35;;;4.20;;
37845;SDS011;23686;49.828;8.702;2023-02-28T06:58:22;6.90;;;4.35;;
37845;SDS011;23686;49.828;8.702;2023-02-28T07:00:50;7.72;;;5.25;;
37845;SDS011;23686;49.828;8.702;2023-02-28T07:03:16;6.22;;;4.47;;
37845;SDS011;23686;49.828;8.702;2023-02-28T07:05:43;5.10;;;4.57;;
37845;SDS011;23686;49.828;8.702;2023-02-28T07:08:09;5.63;;;3.85;;
37845;SDS011;23686;49.828;8.702;2023-02-28T07:10:37;6.60;;;4.35;;
37845;SDS011;23686;49.828;8.702;2023-02-28T07:13:04;6.43;;;4.38;;
37845;SDS011;23686;49.828;8.702;2023-02-28T07:15:30;4.47;;;3.97;;
37845;SDS011;23686;49.828;8.702;2023-02-28T07:17:56;5.95;;;4.65;;
37845;SDS011;23686;49.828;8.702;2023-02-28T07:20:22;5.40;;;3.80;;
37845;SDS011;23686;49.828;8.702;2023-02-28T07:22:48;6.28;;;3.80;;
37845;SDS011;23686;49.828;8.702;2023-02-28T07:25:20;5.55;;;3.80;;
37845;SDS011;23686;49.828;8.702;2023-02-28T07:27:46;6.72;;;4.63;;
37845;SDS011;23686;49.828;8.702;2023-02-28T07:30:12;4.03;;;3.63;;
37845;SDS011;23686;49.828;8.702;2023-02-28T07:32:51;4.78;;;4.28;;
37845;SDS011;23686;49.828;8.702;2023-02-28T07:35:19;5.10;;;4.10;;
37845;SDS011;23686;49.828;8.702;2023-02-28T07:37:45;6.18;;;4.00;;
37845;SDS011;23686;49.828;8.702;2023-02-28T07:40:12;4.65;;;3.97;;
37845;SDS011;23686;49.828;8.702;2023-02-28T07:42:38;5.75;;;3.83;;
37845;SDS011;23686;49.828;8.702;2023-02-28T07:45:05;6.38;;;3.50;;
37845;SDS011;23686;49.828;8.702;2023-02-28T07:47:31;5.57;;;3.97;;
37845;SDS011;23686;49.828;8.702;2023-02-28T07:49:57;5.13;;;3.60;;
37845;SDS011;23686;49.828;8.702;2023-02-28T07:52:23;5.57;;;3.60;;
37845;SDS011;23686;49.828;8.702;2023-02-28T07:54:49;4.43;;;3.28;;
37845;SDS011;23686;49.828;8.702;2023-02-28T07:57:15;3.47;;;3.03;;
37845;SDS011;23686;49.828;8.702;2023-02-28T07:59:41;7.07;;;3.75;;
37845;SDS011;23686;49.828;8.702;2023-02-28T08:02:08;5.32;;;3.40;;
37845;SDS011;23686;49.828;8.702;2023-02-28T08:04:41;5.82;;;3.70;;
37845;SDS011;23686;49.828;8.702;2023-02-28T08:07:07;8.05;;;3.95;;
37845;SDS011;23686;49.828;8.702;2023-02-28T08:09:33;4.72;;;3.28;;
37845;SDS011;23686;49.828;8.702;2023-02-28T08:11:59;5.30;;;3.78;;
37845;SDS011;23686;49.828;8.702;2023-02-28T08:14:24;5.15;;;4.00;;
37845;SDS011;23686;49.828;8.702;2023-02-28T08:16:50;6.32;;;3.95;;
37845;SDS011;23686;49.828;8.702;2023-02-28T08:19:16;6.00;;;3.47;;
37845;SDS011;23686;49.828;8.702;2023-02-28T08:21:41;6.60;;;3.80;;
37845;SDS011;23686;49.828;8.702;2023-02-28T08:24:07;4.35;;;3.95;;
37845;SDS011;23686;49.828;8.702;2023-02-28T08:26:32;5.13;;;3.80;;
37845;SDS011;23686;49.828;8.702;2023-02-28T08:28:58;5.30;;;3.70;;
37845;SDS011;23686;49.828;8.702;2023-02-28T08:31:24;5.38;;;3.80;;
37845;SDS011;23686;49.828;8.702;2023-02-28T08:33:49;7.18;;;4.00;;
37845;SDS011;23686;49.828;8.702;2023-02-28T08:36:16;5.97;;;3.67;;
37845;SDS011;23686;49.828;8.702;2023-02-28T08:38:42;4.50;;;3.88;;
37845;SDS011;23686;49.828;8.702;2023-02-28T08:41:10;5.65;;;4.07;;
37845;SDS011;23686;49.828;8.702;2023-02-28T08:43:36;5.05;;;4.18;;
37845;SDS011;23686;49.828;8.702;2023-02-28T08:46:03;5.60;;;4.68;;
37845;SDS011;23686;49.828;8.702;2023-02-28T08:48:29;5.50;;;4.50;;
37845;SDS011;23686;49.828;8.702;2023-02-28T08:51:18;6.85;;;4.07;;
37845;SDS011;23686;49.828;8.702;2023-02-28T08:53:47;6.13;;;4.63;;
37845;SDS011;23686;49.828;8.702;2023-02-28T08:56:14;7.10;;;4.47;;
37845;SDS011;23686;49.828;8.702;2023-02-28T08:58:44;4.97;;;4.18;;
37845;SDS011;23686;49.828;8.702;2023-02-28T09:01:15;7.10;;;4.55;;
37845;SDS011;23686;49.828;8.702;2023-02-28T09:03:45;5.97;;;4.85;;
37845;SDS011;23686;49.828;8.702;2023-02-28T09:06:12;6.57;;;4.97;;
37845;SDS011;23686;49.828;8.702;2023-02-28T09:08:39;8.35;;;5.22;;
37845;SDS011;23686;49.828;8.702;2023-02-28T09:11:05;7.32;;;5.22;;
37845;SDS011;23686;49.828;8.702;2023-02-28T09:13:31;8.15;;;5.22;;
37845;SDS011;23686;49.828;8.702;2023-02-28T09:15:58;7.15;;;5.35;;
37845;SDS011;23686;49.828;8.702;2023-02-28T09:18:25;8.10;;;5.65;;
37845;SDS011;23686;49.828;8.702;2023-02-28T09:20:51;7.13;;;5.97;;
37845;SDS011;23686;49.828;8.702;2023-02-28T09:23:17;9.57;;;6.03;;
37845;SDS011;23686;49.828;8.702;2023-02-28T09:25:46;6.85;;;5.72;;
37845;SDS011;23686;49.828;8.702;2023-02-28T09:28:13;8.60;;;6.43;;
37845;SDS011;23686;49.828;8.702;2023-02-28T09:30:42;8.32;;;6.13;;
37845;SDS011;23686;49.828;8.702;2023-02-28T09:33:10;8.40;;;6.25;;
37845;SDS011;23686;49.828;8.702;2023-02-28T09:35:36;7.18;;;5.85;;
37845;SDS011;23686;49.828;8.702;2023-02-28T09:38:02;9.55;;;6.18;;
37845;SDS011;23686;49.828;8.702;2023-02-28T09:40:28;9.27;;;6.28;;
37845;SDS011;23686;49.828;8.702;2023-02-28T09:42:55;7.38;;;6.07;;
37845;SDS011;23686;49.828;8.702;2023-02-28T09:45:30;8.23;;;6.15;;
37845;SDS011;23686;49.828;8.702;2023-02-28T09:48:01;9.05;;;6.90;;
37845;SDS011;23686;49.828;8.702;2023-02-28T09:50:38;8.50;;;5.90;;
37845;SDS011;23686;49.828;8.702;2023-02-28T09:56:29;9.93;;;6.55;;
37845;SDS011;23686;49.828;8.702;2023-02-28T09:59:03;10.07;;;6.32;;
37845;SDS011;23686;49.828;8.702;2023-02-28T10:01:53;8.85;;;6.72;;
37845;SDS011;23686;49.828;8.702;2023-02-28T10:07:40;7.25;;;5.97;;
37845;SDS011;23686;49.828;8.702;2023-02-28T10:13:20;8.48;;;6.72;;
37845;SDS011;23686;49.828;8.702;2023-02-28T10:15:47;6.40;;;5.70;;
37845;SDS011;23686;49.828;8.702;2023-02-28T10:18:17;9.25;;;6.90;;
37845;SDS011;23686;49.828;8.702;2023-02-28T10:20:46;9.48;;;7.18;;
37845;SDS011;23686;49.828;8.702;2023-02-28T10:23:17;8.88;;;6.55;;
37845;SDS011;23686;49.828;8.702;2023-02-28T10:26:32;8.45;;;6.07;;
37845;SDS011;23686;49.828;8.702;2023-02-28T10:28:37;8.25;;;6.05;;
37845;SDS011;23686;49.828;8.702;2023-02-28T10:31:03;7.95;;;5.65;;
37845;SDS011;23686;49.828;8.702;2023-02-28T10:36:04;9.50;;;6.20;;
37845;SDS011;23686;49.828;8.702;2023-02-28T10:38:36;8.88;;;6.45;;
37845;SDS011;23686;49.828;8.702;2023-02-28T10:41:08;9.35;;;6.60;;
37845;SDS011;23686;49.828;8.702;2023-02-28T10:43:39;8.35;;;5.72;;
37845;SDS011;23686;49.828;8.702;2023-02-28T10:46:11;7.93;;;6.03;;
37845;SDS011;23686;49.828;8.702;2023-02-28T10:48:57;7.82;;;5.97;;
37845;SDS011;23686;49.828;8.702;2023-02-28T10:51:27;9.00;;;6.37;;
37845;SDS011;23686;49.828;8.702;2023-02-28T10:54:01;9.50;;;6.80;;
37845;SDS011;23686;49.828;8.702;2023-02-28T10:56:28;9.32;;;6.60;;
37845;SDS011;23686;49.828;8.702;2023-02-28T10:58:56;8.30;;;7.05;;
37845;SDS011;23686;49.828;8.702;2023-02-28T11:01:45;6.93;;;6.22;;
37845;SDS011;23686;49.828;8.702;2023-02-28T11:04:17;8.95;;;6.85;;
37845;SDS011;23686;49.828;8.702;2023-02-28T11:06:46;9.63;;;6.63;;
37845;SDS011;23686;49.828;8.702;2023-02-28T11:09:18;8.27;;;6.50;;
37845;SDS011;23686;49.828;8.702;2023-02-28T11:11:45;7.25;;;6.05;;
37845;SDS011;23686;49.828;8.702;2023-02-28T11:14:23;7.65;;;5.97;;
37845;SDS011;23686;49.828;8.702;2023-02-28T11:16:51;8.48;;;7.28;;
37845;SDS011;23686;49.828;8.702;2023-02-28T11:19:22;10.07;;;7.05;;
37845;SDS011;23686;49.828;8.702;2023-02-28T11:22:01;10.30;;;6.78;;
37845;SDS011;23686;49.828;8.702;2023-02-28T11:24:30;7.33;;;6.40;;
37845;SDS011;23686;49.828;8.702;2023-02-28T11:26:58;8.77;;;6.57;;
37845;SDS011;23686;49.828;8.702;2023-02-28T11:29:26;8.85;;;6.50;;
37845;SDS011;23686;49.828;8.702;2023-02-28T11:32:04;8.30;;;6.32;;
37845;SDS011;23686;49.828;8.702;2023-02-28T11:34:33;9.00;;;6.75;;
37845;SDS011;23686;49.828;8.702;2023-02-28T11:37:00;11.32;;;6.90;;
37845;SDS011;23686;49.828;8.702;2023-02-28T11:39:29;8.23;;;6.57;;
37845;SDS011;23686;49.828;8.702;2023-02-28T11:41:59;9.40;;;7.13;;
37845;SDS011;23686;49.828;8.702;2023-02-28T11:44:56;9.32;;;7.80;;
37845;SDS011;23686;49.828;8.702;2023-02-28T11:55:39;8.98;;;7.35;;
37845;SDS011;23686;49.828;8.702;2023-02-28T11:58:14;9.98;;;7.30;;
37845;SDS011;23686;49.828;8.702;2023-02-28T12:22:31;8.95;;;7.75;;
37845;SDS011;23686;49.828;8.702;2023-02-28T12:32:48;8.60;;;6.60;;
37845;SDS011;23686;49.828;8.702;2023-02-28T12:35:21;9.52;;;7.25;;
37845;SDS011;23686;49.828;8.702;2023-02-28T12:37:54;10.05;;;7.50;;
37845;SDS011;23686;49.828;8.702;2023-02-28T12:40:26;9.93;;;8.27;;
37845;SDS011;23686;49.828;8.702;2023-02-28T12:43:02;10.05;;;7.47;;
37845;SDS011;23686;49.828;8.702;2023-02-28T12:45:34;10.77;;;8.07;;
37845;SDS011;23686;49.828;8.702;2023-02-28T12:48:37;10.18;;;8.00;;
37845;SDS011;23686;49.828;8.702;2023-02-28T12:51:09;10.35;;;7.97;;
37845;SDS011;23686;49.828;8.702;2023-02-28T12:53:43;10.02;;;7.50;;
37845;SDS011;23686;49.828;8.702;2023-02-28T12:59:25;9.82;;;7.38;;
37845;SDS011;23686;49.828;8.702;2023-02-28T13:05:06;8.02;;;6.85;;
37845;SDS011;23686;49.828;8.702;2023-02-28T13:07:57;8.75;;;7.60;;
37845;SDS011;23686;49.828;8.702;2023-02-28T13:10:38;9.45;;;6.95;;
37845;SDS011;23686;49.828;8.702;2023-02-28T13:13:13;10.00;;;7.43;;
37845;SDS011;23686;49.828;8.702;2023-02-28T13:15:56;9.45;;;7.65;;
37845;SDS011;23686;49.828;8.702;2023-02-28T13:21:18;9.88;;;7.65;;
37845;SDS011;23686;49.828;8.702;2023-02-28T13:26:28;9.00;;;7.32;;
37845;SDS011;23686;49.828;8.702;2023-02-28T13:34:31;9.17;;;7.20;;
37845;SDS011;23686;49.828;8.702;2023-02-28T13:39:53;10.80;;;7.57;;
37845;SDS011;23686;49.828;8.702;2023-02-28T13:42:48;9.82;;;7.28;;
37845;SDS011;23686;49.828;8.702;2023-02-28T13:45:29;10.70;;;7.07;;
37845;SDS011;23686;49.828;8.702;2023-02-28T13:47:59;10.52;;;7.35;;
37845;SDS011;23686;49.828;8.702;2023-02-28T13:53:38;9.38;;;7.60;;
37845;SDS011;23686;49.828;8.702;2023-02-28T13:58:46;11.45;;;8.32;;
37845;SDS011;23686;49.828;8.702;2023-02-28T14:07:03;10.55;;;7.53;;
37845;SDS011;23686;49.828;8.702;2023-02-28T14:09:30;9.30;;;6.95;;
37845;SDS011;23686;49.828;8.702;2023-02-28T14:15:28;8.98;;;6.90;;
37845;SDS011;23686;49.828;8.702;2023-02-28T14:18:24;9.82;;;7.25;;
37845;SDS011;23686;49.828;8.702;2023-02-28T14:20:58;8.63;;;7.00;;
37845;SDS011;23686;49.828;8.702;2023-02-28T14:23:36;9.82;;;7.93;;
37845;SDS011;23686;49.828;8.702;2023-02-28T14:34:55;9.52;;;7.22;;
37845;SDS011;23686;49.828;8.702;2023-02-28T14:37:27;9.80;;;7.32;;
37845;SDS011;23686;49.828;8.702;2023-02-28T14:39:56;9.80;;;7.60;;
37845;SDS011;23686;49.828;8.702;2023-02-28T14:42:33;9.80;;;7.22;;
37845;SDS011;23686;49.828;8.702;2023-02-28T14:45:00;8.05;;;7.15;;
37845;SDS011;23686;49.828;8.702;2023-02-28T14:47:33;11.20;;;8.00;;
37845;SDS011;23686;49.828;8.702;2023-02-28T14:50:01;10.00;;;7.90;;
37845;SDS011;23686;49.828;8.702;2023-02-28T14:52:29;10.57;;;7.77;;
37845;SDS011;23686;49.828;8.702;2023-02-28T14:54:58;11.18;;;7.57;;
37845;SDS011;23686;49.828;8.702;2023-02-28T14:57:27;11.05;;;6.95;;
37845;SDS011;23686;49.828;8.702;2023-02-28T15:00:46;12.00;;;7.70;;
37845;SDS011;23686;49.828;8.702;2023-02-28T15:02:59;10.25;;;7.57;;
37845;SDS011;23686;49.828;8.702;2023-02-28T15:05:30;9.20;;;7.47;;
37845;SDS011;23686;49.828;8.702;2023-02-28T15:08:05;10.25;;;8.10;;
37845;SDS011;23686;49.828;8.702;2023-02-28T15:10:39;11.15;;;8.05;;
37845;SDS011;23686;49.828;8.702;2023-02-28T15:13:42;9.95;;;7.72;;
37845;SDS011;23686;49.828;8.702;2023-02-28T15:16:11;11.43;;;7.85;;
37845;SDS011;23686;49.828;8.702;2023-02-28T15:21:20;9.55;;;6.97;;
37845;SDS011;23686;49.828;8.702;2023-02-28T15:26:57;10.85;;;6.93;;
37845;SDS011;23686;49.828;8.702;2023-02-28T15:29:25;7.57;;;6.38;;
37845;SDS011;23686;49.828;8.702;2023-02-28T15:32:00;8.63;;;7.03;;
37845;SDS011;23686;49.828;8.702;2023-02-28T15:34:35;9.25;;;6.93;;
37845;SDS011;23686;49.828;8.702;2023-02-28T15:42:36;9.32;;;7.18;;
37845;SDS011;23686;49.828;8.702;2023-02-28T15:45:02;9.52;;;7.30;;
37845;SDS011;23686;49.828;8.702;2023-02-28T15:47:29;9.30;;;6.70;;
37845;SDS011;23686;49.828;8.702;2023-02-28T15:49:59;8.80;;;6.70;;
37845;SDS011;23686;49.828;8.702;2023-02-28T15:52:28;9.13;;;7.07;;
37845;SDS011;23686;49.828;8.702;2023-02-28T15:54:59;8.10;;;6.40;;
37845;SDS011;23686;49.828;8.702;2023-02-28T15:57:40;11.30;;;7.32;;
37845;SDS011;23686;49.828;8.702;2023-02-28T16:00:08;9.00;;;6.80;;
37845;SDS011;23686;49.828;8.702;2023-02-28T16:02:38;9.50;;;7.43;;
37845;SDS011;23686;49.828;8.702;2023-02-28T16:09:59;9.38;;;6.82;;
37845;SDS011;23686;49.828;8.702;2023-02-28T16:12:26;8.15;;;7.07;;
37845;SDS011;23686;49.828;8.702;2023-02-28T16:14:54;10.48;;;7.05;;
37845;SDS011;23686;49.828;8.702;2023-02-28T16:17:26;10.00;;;7.13;;
37845;SDS011;23686;49.828;8.702;2023-02-28T16:19:54;9.23;;;6.68;;
37845;SDS011;23686;49.828;8.702;2023-02-28T16:22:20;10.52;;;7.22;;
37845;SDS011;23686;49.828;8.702;2023-02-28T16:24:45;9.35;;;7.22;;
37845;SDS011;23686;49.828;8.702;2023-02-28T16:27:16;7.50;;;6.50;;
37845;SDS011;23686;49.828;8.702;2023-02-28T16:29:45;10.48;;;7.28;;
37845;SDS011;23686;49.828;8.702;2023-02-28T16:32:12;11.25;;;7.53;;
37845;SDS011;23686;49.828;8.702;2023-02-28T16:34:40;9.40;;;7.22;;
37845;SDS011;23686;49.828;8.702;2023-02-28T16:37:13;13.27;;;6.65;;
37845;SDS011;23686;49.828;8.702;2023-02-28T16:39:42;10.40;;;7.28;;
37845;SDS011;23686;49.828;8.702;2023-02-28T16:42:22;10.45;;;7.63;;
37845;SDS011;23686;49.828;8.702;2023-02-28T16:44:51;11.88;;;7.80;;
37845;SDS011;23686;49.828;8.702;2023-02-28T16:47:17;12.55;;;7.00;;
37845;SDS011;23686;49.828;8.702;2023-02-28T16:49:43;12.57;;;8.02;;
37845;SDS011;23686;49.828;8.702;2023-02-28T16:52:09;9.23;;;6.90;;
37845;SDS011;23686;49.828;8.702;2023-02-28T16:54:36;14.52;;;7.70;;
37845;SDS011;23686;49.828;8.702;2023-02-28T16:57:03;8.63;;;7.13;;
37845;SDS011;23686;49.828;8.702;2023-02-28T16:59:30;8.82;;;7.13;;
37845;SDS011;23686;49.828;8.702;2023-02-28T17:01:56;9.77;;;7.07;;
37845;SDS011;23686;49.828;8.702;2023-02-28T17:04:27;9.48;;;7.38;;
37845;SDS011;23686;49.828;8.702;2023-02-28T17:06:53;9.05;;;7.60;;
37845;SDS011;23686;49.828;8.702;2023-02-28T17:09:22;11.98;;;8.00;;
37845;SDS011;23686;49.828;8.702;2023-02-28T17:11:48;9.02;;;7.05;;
37845;SDS011;23686;49.828;8.702;2023-02-28T17:14:14;17.13;;;7.60;;
37845;SDS011;23686;49.828;8.702;2023-02-28T17:16:40;13.68;;;7.57;;
37845;SDS011;23686;49.828;8.702;2023-02-28T17:19:09;10.85;;;7.20;;